createdAt,value
2022-08-22T00:01:21.177Z,17.49
2022-08-22T00:02:47.663Z,22.00
2022-08-22T00:02:49.935Z,18.39
2022-08-22T00:02:58.169Z,18.72
2022-08-22T00:02:59.282Z,17.67
2022-08-22T00:03:02.035Z,21.69
2022-08-22T00:03:02.258Z,20.55
2022-08-22T00:03:09.413Z,18.23
2022-08-22T00:03:09.683Z,17.66
2022-08-22T00:03:10.896Z,20.12
2022-08-22T00:03:11.845Z,17.55
2022-08-22T00:04:17.550Z,17.43
2022-08-22T00:07:06.576Z,17.40
2022-08-22T00:09:39.912Z,17.31
2022-08-22T00:12:31.209Z,17.27
2022-08-22T00:15:31.605Z,17.25
2022-08-22T00:18:17.809Z,17.24
2022-08-22T00:21:13.041Z,17.25
2022-08-22T00:23:46.214Z,17.05
2022-08-22T00:26:29.922Z,16.91
2022-08-22T00:29:03.067Z,16.82
2022-08-22T00:31:40.828Z,16.84
2022-08-22T00:34:15.978Z,16.82
2022-08-22T00:36:51.281Z,16.85
2022-08-22T00:39:34.585Z,16.82
2022-08-22T00:42:32.048Z,16.85
2022-08-22T00:45:14.506Z,16.89
2022-08-22T00:48:23.579Z,16.97
2022-08-22T00:51:03.217Z,16.93
2022-08-22T00:54:01.249Z,16.91
2022-08-22T00:57:02.356Z,16.90
2022-08-22T00:59:48.509Z,16.89
2022-08-22T01:02:29.281Z,16.84
2022-08-22T01:05:22.614Z,16.85
2022-08-22T01:08:20.989Z,16.83
2022-08-22T01:11:18.910Z,16.75
2022-08-22T01:14:14.906Z,16.80
2022-08-22T01:17:14.704Z,16.81
2022-08-22T01:20:00.679Z,16.80
2022-08-22T01:22:58.771Z,16.82
2022-08-22T01:26:00.103Z,16.74
2022-08-22T01:28:44.949Z,16.48
2022-08-22T01:31:44.256Z,16.47
2022-08-22T01:34:35.183Z,16.52
2022-08-22T01:37:34.921Z,16.55
2022-08-22T01:40:54.349Z,16.50
2022-08-22T01:43:59.570Z,16.43
2022-08-22T01:46:35.556Z,16.42
2022-08-22T01:49:13.442Z,16.44
2022-08-22T01:52:02.709Z,16.44
2022-08-22T01:55:02.346Z,16.23
2022-08-22T01:57:29.624Z,16.03
2022-08-22T02:00:06.502Z,16.06
2022-08-22T02:03:01.388Z,16.12
2022-08-22T02:05:37.524Z,16.17
2022-08-22T02:08:27.548Z,16.16
2022-08-22T02:11:06.362Z,16.18
2022-08-22T02:13:48.441Z,16.22
2022-08-22T02:16:36.608Z,16.22
2022-08-22T02:19:15.078Z,16.17
2022-08-22T02:22:02.116Z,16.13
2022-08-22T02:25:09.152Z,16.13
2022-08-22T02:27:55.049Z,16.15
2022-08-22T02:30:28.911Z,16.19
2022-08-22T02:33:05.612Z,16.20
2022-08-22T02:35:43.271Z,16.26
2022-08-22T02:38:29.307Z,16.28
2022-08-22T02:41:22.316Z,16.20
2022-08-22T02:43:57.109Z,16.11
2022-08-22T02:46:32.263Z,16.10
2022-08-22T02:49:04.879Z,16.12
2022-08-22T02:52:11.373Z,16.12
2022-08-22T02:54:57.369Z,16.18
2022-08-22T02:57:45.440Z,16.19
2022-08-22T03:00:31.041Z,16.16
2022-08-22T03:03:06.722Z,15.89
2022-08-22T03:05:36.921Z,15.73
2022-08-22T03:08:14.013Z,15.71
2022-08-22T03:11:05.712Z,15.79
2022-08-22T03:14:10.848Z,15.81
2022-08-22T03:16:38.868Z,15.81
2022-08-22T03:19:47.838Z,15.92
2022-08-22T03:22:29.920Z,15.92
2022-08-22T03:25:37.901Z,15.96
2022-08-22T03:28:36.210Z,15.89
2022-08-22T03:31:17.148Z,15.95
2022-08-22T03:33:45.259Z,15.94
2022-08-22T03:36:18.072Z,15.91
2022-08-22T03:38:52.658Z,15.92
2022-08-22T03:42:02.579Z,15.92
2022-08-22T03:44:43.473Z,15.87
2022-08-22T03:47:41.377Z,15.84
2022-08-22T03:50:31.740Z,15.78
2022-08-22T03:53:18.987Z,15.81
2022-08-22T03:56:20.150Z,15.82
2022-08-22T03:59:11.540Z,15.76
2022-08-22T04:01:56.333Z,15.81
2022-08-22T04:04:47.954Z,15.77
2022-08-22T04:07:36.833Z,15.73
2022-08-22T04:10:27.179Z,15.74
2022-08-22T04:13:19.180Z,15.62
2022-08-22T04:16:02.392Z,15.65
2022-08-22T04:19:07.998Z,15.70
2022-08-22T04:22:13.792Z,15.73
2022-08-22T04:25:03.609Z,15.65
2022-08-22T04:27:44.122Z,15.43
2022-08-22T04:30:31.351Z,15.29
2022-08-22T04:33:06.578Z,15.31
2022-08-22T04:35:36.451Z,15.38
2022-08-22T04:38:23.038Z,15.43
2022-08-22T04:41:04.588Z,15.57
2022-08-22T04:43:51.859Z,15.67
2022-08-22T04:46:39.716Z,15.78
2022-08-22T04:49:14.547Z,15.84
2022-08-22T04:51:50.894Z,15.96
2022-08-22T04:54:45.655Z,16.05
2022-08-22T04:57:55.627Z,16.15
2022-08-22T05:00:23.357Z,16.25
2022-08-22T05:02:53.560Z,16.36
2022-08-22T05:05:32.536Z,16.42
2022-08-22T05:08:01.644Z,16.49
2022-08-22T05:10:33.535Z,16.45
2022-08-22T05:13:08.028Z,16.41
2022-08-22T05:15:37.198Z,16.47
2022-08-22T05:18:08.599Z,16.51
2022-08-22T05:20:37.462Z,16.54
2022-08-22T05:23:19.395Z,16.64
2022-08-22T05:25:48.336Z,16.75
2022-08-22T05:28:33.797Z,16.85
2022-08-22T05:31:04.748Z,16.93
2022-08-22T05:33:36.912Z,17.02
2022-08-22T05:36:23.104Z,17.16
2022-08-22T05:39:03.703Z,17.22
2022-08-22T05:41:40.357Z,17.31
2022-08-22T05:44:15.997Z,17.36
2022-08-22T05:47:11.067Z,17.48
2022-08-22T05:49:58.733Z,17.58
2022-08-22T05:53:03.407Z,17.67
2022-08-22T05:55:56.648Z,17.74
2022-08-22T05:58:39.215Z,17.85
2022-08-22T06:01:27.605Z,17.90
2022-08-22T06:04:01.608Z,17.99
2022-08-22T06:06:31.278Z,18.05
2022-08-22T06:09:14.408Z,18.09
2022-08-22T06:11:52.060Z,18.18
2022-08-22T06:14:31.086Z,18.23
2022-08-22T06:17:10.347Z,18.33
2022-08-22T06:19:41.046Z,18.38
2022-08-22T06:22:08.974Z,18.45
2022-08-22T06:24:40.059Z,18.61
2022-08-22T06:27:12.425Z,18.74
2022-08-22T06:29:47.083Z,18.84
2022-08-22T06:32:44.477Z,18.93
2022-08-22T06:35:11.834Z,19.05
2022-08-22T06:37:45.820Z,19.09
2022-08-22T06:40:15.206Z,19.18
2022-08-22T06:42:47.936Z,19.23
2022-08-22T06:45:31.358Z,19.39
2022-08-22T06:48:13.682Z,19.42
2022-08-22T06:50:43.080Z,19.50
2022-08-22T06:53:23.984Z,19.60
2022-08-22T06:55:59.482Z,19.73
2022-08-22T06:58:30.880Z,19.92
2022-08-22T07:01:11.983Z,20.08
2022-08-22T07:04:21.037Z,20.29
2022-08-22T07:06:50.608Z,20.56
2022-08-22T07:09:31.517Z,20.73
2022-08-22T07:12:11.010Z,20.94
2022-08-22T07:14:44.644Z,21.08
2022-08-22T07:17:24.360Z,21.30
2022-08-22T07:20:19.014Z,21.58
2022-08-22T07:22:57.566Z,21.66
2022-08-22T07:25:25.869Z,21.62
2022-08-22T07:28:36.593Z,21.70
2022-08-22T07:31:31.972Z,22.01
2022-08-22T07:34:31.936Z,22.33
2022-08-22T07:37:17.719Z,22.56
2022-08-22T07:40:13.999Z,22.68
2022-08-22T07:42:53.785Z,22.92
2022-08-22T07:46:19.511Z,23.09
2022-08-22T07:49:09.570Z,23.01
2022-08-22T07:51:47.997Z,22.76
2022-08-22T07:54:21.613Z,22.74
2022-08-22T07:56:59.388Z,22.70
2022-08-22T07:59:28.164Z,22.73
2022-08-22T08:01:58.792Z,22.74
2022-08-22T08:04:30.552Z,22.79
2022-08-22T08:07:00.490Z,22.84
2022-08-22T08:09:33.266Z,22.93
2022-08-22T08:12:02.295Z,23.06
2022-08-22T08:14:29.504Z,22.91
2022-08-22T08:17:06.078Z,22.93
2022-08-22T08:19:40.029Z,22.87
2022-08-22T08:22:07.711Z,22.99
2022-08-22T08:24:41.691Z,23.20
2022-08-22T08:27:34.816Z,23.33
2022-08-22T08:30:04.204Z,23.36
2022-08-22T08:32:33.782Z,23.23
2022-08-22T08:35:28.553Z,23.23
2022-08-22T08:38:12.676Z,23.32
2022-08-22T08:40:52.629Z,23.30
2022-08-22T08:43:38.188Z,23.36
2022-08-22T08:46:14.347Z,23.45
2022-08-22T08:49:06.339Z,23.45
2022-08-22T08:51:55.371Z,23.43
2022-08-22T08:54:29.420Z,23.55
2022-08-22T08:57:04.031Z,23.45
2022-08-22T09:00:04.273Z,23.64
2022-08-22T09:03:07.332Z,23.48
2022-08-22T09:06:07.144Z,23.56
2022-08-22T09:08:46.177Z,23.62
2022-08-22T09:11:57.434Z,23.78
2022-08-22T09:14:47.391Z,23.71
2022-08-22T09:17:43.917Z,24.05
2022-08-22T09:20:38.270Z,24.18
2022-08-22T09:23:36.634Z,24.13
2022-08-22T09:26:11.617Z,24.27
2022-08-22T09:29:00.113Z,24.32
2022-08-22T09:31:55.885Z,24.19
2022-08-22T09:34:41.753Z,24.03
2022-08-22T09:37:16.216Z,23.96
2022-08-22T09:40:10.476Z,24.01
2022-08-22T09:43:06.215Z,23.98
2022-08-22T09:45:57.484Z,24.01
2022-08-22T09:49:02.000Z,24.09
2022-08-22T09:51:38.735Z,24.31
2022-08-22T09:54:23.073Z,24.66
2022-08-22T09:57:13.938Z,24.62
2022-08-22T09:59:47.912Z,24.54
2022-08-22T10:02:44.830Z,24.49
2022-08-22T10:05:43.776Z,24.33
2022-08-22T10:08:19.883Z,24.46
2022-08-22T10:11:18.449Z,24.41
2022-08-22T10:13:57.403Z,24.60
2022-08-22T10:16:54.127Z,24.73
2022-08-22T10:19:45.898Z,24.91
2022-08-22T10:22:23.757Z,25.12
2022-08-22T10:25:30.500Z,24.76
2022-08-22T10:28:45.079Z,25.07
2022-08-22T10:31:33.926Z,24.98
2022-08-22T10:34:17.004Z,25.29
2022-08-22T10:37:03.245Z,24.97
2022-08-22T10:39:50.371Z,25.15
2022-08-22T10:42:28.852Z,25.04
2022-08-22T10:45:16.049Z,24.83
2022-08-22T10:48:08.827Z,24.94
2022-08-22T10:50:43.130Z,25.30
2022-08-22T10:53:35.021Z,25.30
2022-08-22T10:56:08.720Z,25.62
2022-08-22T10:58:58.057Z,25.43
2022-08-22T11:01:38.573Z,25.22
2022-08-22T11:04:36.336Z,25.38
2022-08-22T11:07:36.575Z,25.56
2022-08-22T11:10:22.837Z,25.21
2022-08-22T11:13:17.014Z,25.36
2022-08-22T11:16:07.690Z,25.26
2022-08-22T11:19:03.011Z,25.13
2022-08-22T11:22:01.344Z,25.23
2022-08-22T11:25:02.445Z,25.39
2022-08-22T11:27:53.361Z,25.42
2022-08-22T11:31:07.065Z,25.38
2022-08-22T11:33:55.504Z,25.50
2022-08-22T11:36:46.346Z,25.42
2022-08-22T11:39:32.619Z,25.46
2022-08-22T11:42:14.824Z,25.68
2022-08-22T11:44:57.619Z,25.58
2022-08-22T11:47:29.625Z,25.61
2022-08-22T11:50:16.430Z,25.77
2022-08-22T11:53:13.221Z,25.71
2022-08-22T11:55:53.435Z,25.93
2022-08-22T11:58:34.454Z,25.66
2022-08-22T12:01:34.250Z,25.66
2022-08-22T12:04:12.858Z,25.14
2022-08-22T12:07:02.476Z,25.22
2022-08-22T12:09:47.782Z,25.34
2022-08-22T12:12:30.082Z,25.50
2022-08-22T12:15:03.234Z,25.68
2022-08-22T12:18:01.634Z,25.73
2022-08-22T12:20:59.479Z,25.60
2022-08-22T12:23:50.281Z,25.65
2022-08-22T12:26:29.934Z,25.75
2022-08-22T12:29:20.440Z,25.72
2022-08-22T12:32:45.854Z,25.69
2022-08-22T12:35:29.765Z,25.82
2022-08-22T12:38:28.003Z,25.62
2022-08-22T12:41:28.529Z,25.82
2022-08-22T12:44:25.343Z,25.73
2022-08-22T12:47:14.733Z,25.80
2022-08-22T12:50:03.727Z,25.61
2022-08-22T12:53:06.883Z,25.64
2022-08-22T12:56:03.431Z,25.54
2022-08-22T12:59:11.348Z,25.59
2022-08-22T13:01:46.600Z,25.60
2022-08-22T13:04:33.248Z,25.69
2022-08-22T13:07:17.545Z,25.76
2022-08-22T13:09:52.976Z,25.76
2022-08-22T13:12:27.704Z,25.78
2022-08-22T13:15:19.658Z,25.75
2022-08-22T13:17:48.159Z,25.57
2022-08-22T13:20:26.969Z,25.39
2022-08-22T13:22:55.583Z,25.28
2022-08-22T13:25:25.809Z,25.29
2022-08-22T13:27:59.449Z,25.35
2022-08-22T13:30:39.361Z,25.21
2022-08-22T13:33:10.390Z,25.15
2022-08-22T13:35:51.933Z,25.09
2022-08-22T13:38:34.896Z,25.28
2022-08-22T13:41:05.180Z,25.32
2022-08-22T13:43:54.244Z,25.50
2022-08-22T13:46:28.255Z,25.36
2022-08-22T13:49:01.121Z,25.36
2022-08-22T13:51:54.431Z,25.61
2022-08-22T13:54:37.629Z,25.76
2022-08-22T13:57:17.907Z,25.81
2022-08-22T14:00:11.863Z,25.61
2022-08-22T14:03:08.029Z,25.73
2022-08-22T14:05:43.817Z,25.62
2022-08-22T14:08:34.739Z,25.42
2022-08-22T14:11:19.946Z,25.62
2022-08-22T14:14:04.184Z,25.69
2022-08-22T14:16:40.503Z,25.46
2022-08-22T14:19:11.567Z,25.29
2022-08-22T14:21:45.664Z,25.39
2022-08-22T14:24:29.908Z,25.55
2022-08-22T14:27:05.685Z,25.51
2022-08-22T14:29:52.075Z,25.11
2022-08-22T14:32:22.633Z,25.20
2022-08-22T14:35:04.112Z,25.19
2022-08-22T14:37:39.062Z,25.06
2022-08-22T14:40:11.448Z,25.15
2022-08-22T14:42:58.764Z,25.04
2022-08-22T14:45:34.449Z,25.29
2022-08-22T14:48:31.446Z,25.50
2022-08-22T14:51:04.433Z,25.10
2022-08-22T14:53:34.375Z,25.10
2022-08-22T14:56:10.924Z,25.14
2022-08-22T14:58:47.761Z,24.99
2022-08-22T15:01:21.662Z,24.94
2022-08-22T15:04:18.844Z,25.15
2022-08-22T15:06:55.355Z,25.08
2022-08-22T15:09:40.523Z,25.15
2022-08-22T15:12:28.750Z,25.13
2022-08-22T15:15:00.136Z,24.91
2022-08-22T15:17:40.498Z,25.00
2022-08-22T15:20:27.736Z,25.10
2022-08-22T15:23:00.935Z,25.19
2022-08-22T15:25:46.870Z,25.11
2022-08-22T15:28:20.208Z,25.04
2022-08-22T15:31:03.592Z,25.19
2022-08-22T15:33:34.991Z,24.82
2022-08-22T15:36:11.852Z,24.70
2022-08-22T15:38:54.290Z,24.79
2022-08-22T15:41:37.639Z,24.79
2022-08-22T15:44:32.407Z,24.94
2022-08-22T15:47:32.864Z,24.81
2022-08-22T15:50:06.202Z,24.75
2022-08-22T15:53:08.873Z,24.71
2022-08-22T15:55:37.837Z,24.52
2022-08-22T15:58:20.834Z,24.42
2022-08-22T16:01:19.811Z,24.40
2022-08-22T16:03:58.641Z,24.40
2022-08-22T16:06:53.435Z,24.35
2022-08-22T16:09:43.400Z,24.46
2022-08-22T16:12:27.853Z,24.37
2022-08-22T16:14:55.273Z,24.24
2022-08-22T16:17:28.291Z,24.22
2022-08-22T16:20:17.848Z,24.09
2022-08-22T16:22:57.887Z,24.09
2022-08-22T16:25:45.347Z,24.12
2022-08-22T16:28:56.425Z,24.17
2022-08-22T16:31:32.313Z,24.31
2022-08-22T16:34:39.683Z,24.40
2022-08-22T16:37:14.623Z,24.17
2022-08-22T16:40:04.402Z,24.20
2022-08-22T16:42:53.789Z,24.14
2022-08-22T16:45:42.977Z,24.20
2022-08-22T16:48:25.673Z,24.18
2022-08-22T16:51:12.874Z,24.19
2022-08-22T16:53:45.924Z,24.01
2022-08-22T16:56:29.886Z,23.92
2022-08-22T16:59:22.527Z,23.95
2022-08-22T17:01:50.821Z,23.89
2022-08-22T17:05:10.739Z,23.98
2022-08-22T17:08:07.962Z,23.87
2022-08-22T17:10:53.019Z,23.86
2022-08-22T17:13:45.306Z,23.83
2022-08-22T17:16:23.733Z,23.80
2022-08-22T17:19:13.258Z,23.90
2022-08-22T17:21:51.881Z,23.84
2022-08-22T17:24:32.108Z,23.75
2022-08-22T17:27:19.852Z,23.82
2022-08-22T17:30:09.268Z,23.95
2022-08-22T17:33:03.776Z,23.93
2022-08-22T17:36:03.293Z,23.81
2022-08-22T17:38:33.392Z,23.68
2022-08-22T17:41:18.875Z,23.77
2022-08-22T17:44:08.193Z,23.60
2022-08-22T17:47:22.019Z,23.58
2022-08-22T17:49:57.158Z,23.57
2022-08-22T17:52:35.031Z,23.57
2022-08-22T17:55:19.999Z,23.55
2022-08-22T17:57:54.059Z,23.47
2022-08-22T18:00:38.132Z,23.47
2022-08-22T18:03:24.785Z,23.28
2022-08-22T18:06:04.015Z,23.30
2022-08-22T18:08:38.688Z,23.02
2022-08-22T18:11:40.151Z,22.92
2022-08-22T18:14:33.993Z,22.83
2022-08-22T18:17:01.417Z,22.78
2022-08-22T18:19:54.416Z,22.87
2022-08-22T18:22:27.219Z,22.79
2022-08-22T18:25:04.133Z,22.65
2022-08-22T18:27:40.019Z,22.62
2022-08-22T18:30:18.071Z,22.54
2022-08-22T18:32:58.857Z,22.59
2022-08-22T18:35:28.853Z,22.64
2022-08-22T18:38:29.447Z,22.60
2022-08-22T18:41:10.475Z,22.45
2022-08-22T18:43:46.462Z,22.53
2022-08-22T18:46:38.200Z,22.48
2022-08-22T18:49:20.918Z,22.45
2022-08-22T18:52:31.798Z,22.48
2022-08-22T18:55:10.466Z,22.44
2022-08-22T18:58:02.629Z,22.32
2022-08-22T19:00:46.219Z,22.23
2022-08-22T19:03:50.959Z,22.18
2022-08-22T19:06:37.739Z,22.08
2022-08-22T19:09:43.044Z,21.89
2022-08-22T19:12:36.228Z,21.91
2022-08-22T19:15:27.969Z,21.84
2022-08-22T19:18:34.540Z,21.69
2022-08-22T19:21:37.573Z,21.60
2022-08-22T19:24:26.909Z,21.44
2022-08-22T19:27:19.092Z,21.53
2022-08-22T19:29:46.333Z,21.56
2022-08-22T19:32:45.643Z,21.70
2022-08-22T19:35:37.232Z,21.52
2022-08-22T19:38:06.873Z,21.59
2022-08-22T19:40:51.306Z,21.32
2022-08-22T19:43:34.358Z,21.22
2022-08-22T19:46:04.122Z,21.36
2022-08-22T19:48:49.440Z,21.32
2022-08-22T19:51:22.467Z,21.18
2022-08-22T19:53:53.247Z,21.32
2022-08-22T19:56:59.517Z,21.23
2022-08-22T20:00:18.068Z,21.26
2022-08-22T20:02:55.501Z,21.22
2022-08-22T20:06:02.213Z,21.22
2022-08-22T20:08:51.560Z,21.15
2022-08-22T20:11:40.264Z,21.01
2022-08-22T20:14:30.878Z,20.95
2022-08-22T20:17:14.019Z,20.89
2022-08-22T20:23:05.321Z,20.67
2022-08-22T20:25:43.061Z,20.42
2022-08-22T20:28:47.031Z,20.50
2022-08-22T20:31:26.149Z,20.47
2022-08-22T20:33:59.454Z,20.52
2022-08-22T20:36:28.326Z,20.54
2022-08-22T20:39:09.515Z,20.65
2022-08-22T20:41:41.759Z,20.73
2022-08-22T20:44:38.329Z,20.81
2022-08-22T20:47:13.952Z,20.64
2022-08-22T20:49:53.824Z,20.53
2022-08-22T20:52:35.799Z,20.57
2022-08-22T20:55:17.394Z,20.52
2022-08-22T20:57:55.486Z,20.56
2022-08-22T21:00:36.457Z,20.64
2022-08-22T21:03:28.496Z,20.70
2022-08-22T21:05:55.710Z,20.66
2022-08-22T21:08:26.671Z,20.68
2022-08-22T21:11:21.557Z,20.76
2022-08-22T21:13:49.252Z,20.76
2022-08-22T21:16:20.739Z,20.84
2022-08-22T21:18:50.656Z,20.84
2022-08-22T21:21:26.599Z,20.90
2022-08-22T21:24:00.982Z,20.91
2022-08-22T21:26:40.932Z,20.94
2022-08-22T21:29:13.917Z,20.88
2022-08-22T21:32:25.672Z,20.82
2022-08-22T21:34:53.254Z,20.72
2022-08-22T21:37:43.344Z,20.74
2022-08-22T21:40:20.090Z,20.71
2022-08-22T21:43:05.988Z,20.74
2022-08-22T21:45:41.276Z,20.71
2022-08-22T21:48:34.687Z,20.69
2022-08-22T21:51:28.289Z,20.67
2022-08-22T21:54:29.535Z,20.67
2022-08-22T21:56:59.269Z,20.57
2022-08-22T21:59:52.110Z,20.60
2022-08-22T22:02:27.468Z,20.58
2022-08-22T22:04:54.991Z,20.45
2022-08-22T22:07:24.337Z,20.35
2022-08-22T22:09:54.456Z,20.19
2022-08-22T22:12:22.710Z,20.23
2022-08-22T22:14:50.351Z,20.19
2022-08-22T22:17:18.768Z,20.16
2022-08-22T22:19:46.235Z,20.09
2022-08-22T22:22:14.226Z,20.08
2022-08-22T22:24:41.445Z,20.05
2022-08-22T22:27:10.929Z,20.05
2022-08-22T22:29:41.116Z,19.98
2022-08-22T22:32:09.541Z,20.07
2022-08-22T22:34:39.034Z,20.06
2022-08-22T22:37:08.262Z,20.05
2022-08-22T22:39:36.680Z,20.02
2022-08-22T22:42:06.313Z,19.90
2022-08-22T22:44:33.695Z,19.73
2022-08-22T22:47:02.335Z,19.57
2022-08-22T22:49:31.096Z,19.52
2022-08-22T22:51:59.445Z,19.48
2022-08-22T22:54:27.573Z,19.63
2022-08-22T22:56:57.239Z,19.68
2022-08-22T22:59:25.996Z,19.76
2022-08-22T23:02:08.411Z,19.86
2022-08-22T23:04:37.816Z,19.89
2022-08-22T23:07:06.094Z,19.93
2022-08-22T23:09:38.551Z,19.98
2022-08-22T23:12:13.534Z,19.98
2022-08-22T23:14:40.974Z,20.02
2022-08-22T23:17:08.366Z,20.04
2022-08-22T23:19:37.320Z,20.08
2022-08-22T23:22:05.146Z,20.01
2022-08-22T23:24:32.587Z,20.08
2022-08-22T23:27:00.306Z,20.06
2022-08-22T23:29:27.777Z,20.06
2022-08-22T23:31:57.449Z,19.98
2022-08-22T23:34:37.488Z,19.93
2022-08-22T23:37:07.053Z,19.76
2022-08-22T23:39:34.765Z,19.85
2022-08-22T23:42:02.423Z,19.90
2022-08-22T23:44:32.360Z,19.96
2022-08-22T23:47:00.202Z,19.99
2022-08-22T23:49:28.896Z,20.02
2022-08-22T23:51:56.628Z,20.01
2022-08-22T23:54:24.310Z,20.05
2022-08-22T23:56:54.629Z,20.09
2022-08-22T23:59:30.577Z,20.11
